Accueil
METAR-TAF:

METAR-TAF

Aéroports :

Aéroport de Paris-Charles-de-Gaulle

Paris-Charles De Gaulle, France

latitude: 49-01N, longitude: 002-32E, altitude: 118 m

Observation

Le bulletin a été fait il y a 21 minutes, à 12:00 UTC
Vent 7 kt de nord-est, variant entre nord/nord-ouest et est
Température 25°C
Humidité 39%
Pression 1018 hPa
Visibilité 10 km ou plus
pas de nuages en-dessous de 1500 mètres et pas de cumulonimbus.

METAR: LFPG 181200Z 05007KT 340V080 CAVOK 25/10 Q1018 NOSIG

Heure: 14:21 (12:21 UTC)

Prévision

Le bulletin a été fait il y a 1 heure et 21 minutes, à 11:00 UTC
Prévision valable du 18 à 12 UTC au 19 à 18 UTC
Vent 8 kt de nord-est
Visibilité 10 km ou plus
pas de nuages en-dessous de 1500 mètres et pas de cumulonimbus.

TAF: LFPG 181100Z 1812/1918 04008KT CAVOK TX31/1914Z TN18/1905Z

Observations et prévisions météorologiques de plus de 4000 aéroports (messages METAR et TAF).

Les stations disponibles sont représentées par des disques jaunes et rouges sur la carte.

Passer la souris dessus pour voir le nom de la station.

Cliquer dessus pour voir les observations et prévisions météorologiques.

Pour changer de carte: cliquez sur les boutons verts avec une croix noire pour zoomer, sur le bouton vert avec un tiret pour effectuer un zoom arrière, ou sur les flèches vertes pour les cartes adjacentes.


METAR-TAF: